sensor_id;sensor_type;location;lat;lon;timestamp;pressure;altitude;pressure_sealevel;temperature;humidity
70488;BME280;57976;48.174;16.370;2022-09-12T00:00:49;99351.65;;;15.83;91.67
70488;BME280;57976;48.174;16.370;2022-09-12T00:02:54;99352.79;;;15.83;91.66
70488;BME280;57976;48.174;16.370;2022-09-12T00:04:59;99351.74;;;15.82;91.92
70488;BME280;57976;48.174;16.370;2022-09-12T00:07:04;99352.11;;;15.79;92.09
70488;BME280;57976;48.174;16.370;2022-09-12T00:09:10;99353.30;;;15.78;92.00
70488;BME280;57976;48.174;16.370;2022-09-12T00:11:15;99352.80;;;15.75;92.12
70488;BME280;57976;48.174;16.370;2022-09-12T00:13:20;99357.25;;;15.74;92.35
70488;BME280;57976;48.174;16.370;2022-09-12T00:15:24;99348.23;;;15.72;92.26
70488;BME280;57976;48.174;16.370;2022-09-12T00:17:29;99346.77;;;15.71;92.41
70488;BME280;57976;48.174;16.370;2022-09-12T00:19:34;99343.70;;;15.69;92.66
70488;BME280;57976;48.174;16.370;2022-09-12T00:21:39;99342.92;;;15.68;92.99
70488;BME280;57976;48.174;16.370;2022-09-12T00:23:45;99345.08;;;15.66;92.86
70488;BME280;57976;48.174;16.370;2022-09-12T00:25:50;99338.48;;;15.64;92.85
70488;BME280;57976;48.174;16.370;2022-09-12T00:27:54;99334.59;;;15.61;92.94
70488;BME280;57976;48.174;16.370;2022-09-12T00:29:59;99334.73;;;15.60;93.21
70488;BME280;57976;48.174;16.370;2022-09-12T00:32:04;99341.75;;;15.60;93.26
70488;BME280;57976;48.174;16.370;2022-09-12T00:34:09;99338.79;;;15.57;93.38
70488;BME280;57976;48.174;16.370;2022-09-12T00:36:15;99342.52;;;15.56;93.64
70488;BME280;57976;48.174;16.370;2022-09-12T00:38:21;99338.80;;;15.53;93.94
70488;BME280;57976;48.174;16.370;2022-09-12T00:40:26;99337.70;;;15.50;94.42
70488;BME280;57976;48.174;16.370;2022-09-12T00:42:31;99335.23;;;15.47;94.49
70488;BME280;57976;48.174;16.370;2022-09-12T00:44:50;99335.39;;;15.45;94.78
70488;BME280;57976;48.174;16.370;2022-09-12T00:46:58;99336.02;;;15.43;95.55
70488;BME280;57976;48.174;16.370;2022-09-12T00:49:09;99330.36;;;15.40;95.68
70488;BME280;57976;48.174;16.370;2022-09-12T00:51:16;99333.83;;;15.37;96.61
70488;BME280;57976;48.174;16.370;2022-09-12T00:53:21;99331.73;;;15.34;96.65
70488;BME280;57976;48.174;16.370;2022-09-12T00:55:29;99332.36;;;15.34;96.71
70488;BME280;57976;48.174;16.370;2022-09-12T00:57:36;99332.89;;;15.34;96.56
70488;BME280;57976;48.174;16.370;2022-09-12T00:59:47;99335.80;;;15.32;97.19
70488;BME280;57976;48.174;16.370;2022-09-12T01:01:55;99341.70;;;15.32;97.39
70488;BME280;57976;48.174;16.370;2022-09-12T01:04:00;99341.00;;;15.34;97.70
70488;BME280;57976;48.174;16.370;2022-09-12T01:06:08;99340.77;;;15.33;97.87
70488;BME280;57976;48.174;16.370;2022-09-12T01:08:16;99341.79;;;15.33;97.74
70488;BME280;57976;48.174;16.370;2022-09-12T01:10:21;99338.83;;;15.33;97.94
70488;BME280;57976;48.174;16.370;2022-09-12T01:12:27;99338.10;;;15.31;98.09
70488;BME280;57976;48.174;16.370;2022-09-12T01:14:32;99340.10;;;15.30;98.34
70488;BME280;57976;48.174;16.370;2022-09-12T01:16:38;99336.98;;;15.28;98.70
70488;BME280;57976;48.174;16.370;2022-09-12T01:18:54;99332.95;;;15.28;98.43
70488;BME280;57976;48.174;16.370;2022-09-12T01:21:13;99332.04;;;15.28;98.86
70488;BME280;57976;48.174;16.370;2022-09-12T01:24:04;99331.36;;;15.26;99.24
70488;BME280;57976;48.174;16.370;2022-09-12T01:29:05;99329.17;;;15.24;99.93
70488;BME280;57976;48.174;16.370;2022-09-12T01:31:19;99325.02;;;15.23;99.70
70488;BME280;57976;48.174;16.370;2022-09-12T01:33:37;99325.36;;;15.25;99.72
70488;BME280;57976;48.174;16.370;2022-09-12T01:35:55;99321.86;;;15.26;99.92
70488;BME280;57976;48.174;16.370;2022-09-12T01:38:11;99317.45;;;15.26;99.84
70488;BME280;57976;48.174;16.370;2022-09-12T01:40:22;99311.45;;;15.27;99.77
70488;BME280;57976;48.174;16.370;2022-09-12T01:42:36;99308.42;;;15.28;99.45
70488;BME280;57976;48.174;16.370;2022-09-12T01:44:48;99307.58;;;15.31;99.87
70488;BME280;57976;48.174;16.370;2022-09-12T01:47:01;99307.13;;;15.31;99.88
70488;BME280;57976;48.174;16.370;2022-09-12T01:49:13;99305.93;;;15.31;99.78
70488;BME280;57976;48.174;16.370;2022-09-12T01:51:22;99307.91;;;15.33;99.71
70488;BME280;57976;48.174;16.370;2022-09-12T01:53:32;99304.11;;;15.34;99.71
70488;BME280;57976;48.174;16.370;2022-09-12T01:55:43;99304.98;;;15.36;99.76
70488;BME280;57976;48.174;16.370;2022-09-12T01:57:52;99303.66;;;15.38;99.84
70488;BME280;57976;48.174;16.370;2022-09-12T02:00:00;99303.27;;;15.39;99.47
70488;BME280;57976;48.174;16.370;2022-09-12T02:02:22;99304.20;;;15.40;99.67
70488;BME280;57976;48.174;16.370;2022-09-12T02:04:35;99302.35;;;15.40;99.75
70488;BME280;57976;48.174;16.370;2022-09-12T02:06:48;99302.25;;;15.42;99.69
70488;BME280;57976;48.174;16.370;2022-09-12T02:08:55;99300.23;;;15.44;99.53
70488;BME280;57976;48.174;16.370;2022-09-12T02:11:05;99304.59;;;15.44;99.57
70488;BME280;57976;48.174;16.370;2022-09-12T02:13:14;99297.34;;;15.42;99.45
70488;BME280;57976;48.174;16.370;2022-09-12T02:15:25;99297.48;;;15.42;99.45
70488;BME280;57976;48.174;16.370;2022-09-12T02:17:35;99293.64;;;15.42;99.30
70488;BME280;57976;48.174;16.370;2022-09-12T02:19:46;99295.70;;;15.41;99.50
70488;BME280;57976;48.174;16.370;2022-09-12T02:21:55;99295.06;;;15.39;99.65
70488;BME280;57976;48.174;16.370;2022-09-12T02:24:03;99295.75;;;15.38;99.48
70488;BME280;57976;48.174;16.370;2022-09-12T02:26:22;99294.49;;;15.36;99.37
70488;BME280;57976;48.174;16.370;2022-09-12T02:28:31;99292.84;;;15.34;99.34
70488;BME280;57976;48.174;16.370;2022-09-12T02:30:41;99294.16;;;15.31;99.65
70488;BME280;57976;48.174;16.370;2022-09-12T02:32:57;99291.27;;;15.29;99.60
70488;BME280;57976;48.174;16.370;2022-09-12T02:35:08;99291.65;;;15.26;99.69
70488;BME280;57976;48.174;16.370;2022-09-12T02:37:19;99298.45;;;15.24;99.99
70488;BME280;57976;48.174;16.370;2022-09-12T02:39:27;99298.63;;;15.20;100.00
70488;BME280;57976;48.174;16.370;2022-09-12T02:41:32;99291.16;;;15.18;99.94
70488;BME280;57976;48.174;16.370;2022-09-12T02:43:37;99289.52;;;15.15;99.88
70488;BME280;57976;48.174;16.370;2022-09-12T02:45:42;99293.65;;;15.12;99.96
70488;BME280;57976;48.174;16.370;2022-09-12T02:47:49;99292.01;;;15.11;99.92
70488;BME280;57976;48.174;16.370;2022-09-12T02:49:57;99292.74;;;15.10;99.98
70488;BME280;57976;48.174;16.370;2022-09-12T02:52:03;99291.84;;;15.09;99.95
70488;BME280;57976;48.174;16.370;2022-09-12T02:54:08;99296.02;;;15.06;100.00
70488;BME280;57976;48.174;16.370;2022-09-12T02:56:18;99297.55;;;15.05;100.00
70488;BME280;57976;48.174;16.370;2022-09-12T02:58:28;99289.90;;;15.04;100.00
70488;BME280;57976;48.174;16.370;2022-09-12T03:00:38;99291.09;;;15.02;100.00
70488;BME280;57976;48.174;16.370;2022-09-12T03:02:57;99289.16;;;15.01;100.00
70488;BME280;57976;48.174;16.370;2022-09-12T03:05:16;99292.56;;;14.99;100.00
70488;BME280;57976;48.174;16.370;2022-09-12T03:07:29;99291.02;;;14.98;100.00
70488;BME280;57976;48.174;16.370;2022-09-12T03:09:41;99289.31;;;14.96;100.00
70488;BME280;57976;48.174;16.370;2022-09-12T03:12:05;99285.95;;;14.95;100.00
70488;BME280;57976;48.174;16.370;2022-09-12T03:14:21;99286.33;;;14.92;100.00
70488;BME280;57976;48.174;16.370;2022-09-12T03:16:36;99286.00;;;14.92;100.00
70488;BME280;57976;48.174;16.370;2022-09-12T03:18:52;99290.41;;;14.92;100.00
70488;BME280;57976;48.174;16.370;2022-09-12T03:21:07;99291.27;;;14.93;100.00
70488;BME280;57976;48.174;16.370;2022-09-12T03:23:22;99291.44;;;14.90;100.00
70488;BME280;57976;48.174;16.370;2022-09-12T03:25:31;99292.30;;;14.89;100.00
70488;BME280;57976;48.174;16.370;2022-09-12T03:27:41;99293.90;;;14.89;100.00
70488;BME280;57976;48.174;16.370;2022-09-12T03:29:49;99289.41;;;14.87;100.00
70488;BME280;57976;48.174;16.370;2022-09-12T03:31:56;99290.80;;;14.87;100.00
70488;BME280;57976;48.174;16.370;2022-09-12T03:34:01;99290.35;;;14.86;100.00
70488;BME280;57976;48.174;16.370;2022-09-12T03:36:07;99283.53;;;14.86;100.00
70488;BME280;57976;48.174;16.370;2022-09-12T03:38:13;99284.84;;;14.87;100.00
70488;BME280;57976;48.174;16.370;2022-09-12T03:40:18;99284.52;;;14.87;100.00
70488;BME280;57976;48.174;16.370;2022-09-12T03:42:23;99284.37;;;14.85;100.00
70488;BME280;57976;48.174;16.370;2022-09-12T03:44:28;99280.12;;;14.85;100.00
70488;BME280;57976;48.174;16.370;2022-09-12T03:46:33;99280.61;;;14.85;100.00
70488;BME280;57976;48.174;16.370;2022-09-12T03:48:38;99282.04;;;14.84;100.00
70488;BME280;57976;48.174;16.370;2022-09-12T03:50:43;99280.40;;;14.83;100.00
70488;BME280;57976;48.174;16.370;2022-09-12T03:52:48;99280.48;;;14.82;100.00
70488;BME280;57976;48.174;16.370;2022-09-12T03:54:52;99275.42;;;14.82;100.00
70488;BME280;57976;48.174;16.370;2022-09-12T03:56:57;99275.52;;;14.81;100.00
70488;BME280;57976;48.174;16.370;2022-09-12T03:59:05;99278.54;;;14.81;100.00
70488;BME280;57976;48.174;16.370;2022-09-12T04:01:11;99279.59;;;14.81;100.00
70488;BME280;57976;48.174;16.370;2022-09-12T04:03:17;99287.30;;;14.80;100.00
70488;BME280;57976;48.174;16.370;2022-09-12T04:05:21;99287.52;;;14.80;100.00
70488;BME280;57976;48.174;16.370;2022-09-12T04:07:26;99291.27;;;14.80;100.00
70488;BME280;57976;48.174;16.370;2022-09-12T04:09:31;99286.48;;;14.79;100.00
70488;BME280;57976;48.174;16.370;2022-09-12T04:11:36;99285.61;;;14.79;100.00
70488;BME280;57976;48.174;16.370;2022-09-12T04:13:42;99286.03;;;14.79;100.00
70488;BME280;57976;48.174;16.370;2022-09-12T04:15:57;99293.58;;;14.79;100.00
70488;BME280;57976;48.174;16.370;2022-09-12T04:18:02;99291.27;;;14.78;100.00
70488;BME280;57976;48.174;16.370;2022-09-12T04:20:10;99290.70;;;14.79;100.00
70488;BME280;57976;48.174;16.370;2022-09-12T04:22:14;99290.30;;;14.78;100.00
70488;BME280;57976;48.174;16.370;2022-09-12T04:24:19;99284.48;;;14.77;100.00
70488;BME280;57976;48.174;16.370;2022-09-12T04:26:24;99285.14;;;14.78;100.00
70488;BME280;57976;48.174;16.370;2022-09-12T04:28:29;99285.95;;;14.80;100.00
70488;BME280;57976;48.174;16.370;2022-09-12T04:30:35;99286.43;;;14.80;100.00
70488;BME280;57976;48.174;16.370;2022-09-12T04:32:39;99288.17;;;14.81;100.00
70488;BME280;57976;48.174;16.370;2022-09-12T04:34:44;99287.42;;;14.83;100.00
70488;BME280;57976;48.174;16.370;2022-09-12T04:36:49;99288.91;;;14.85;100.00
70488;BME280;57976;48.174;16.370;2022-09-12T04:38:54;99286.56;;;14.87;100.00
70488;BME280;57976;48.174;16.370;2022-09-12T04:40:59;99284.56;;;14.89;100.00
70488;BME280;57976;48.174;16.370;2022-09-12T04:43:04;99279.88;;;14.90;100.00
70488;BME280;57976;48.174;16.370;2022-09-12T04:45:10;99282.50;;;14.91;100.00
70488;BME280;57976;48.174;16.370;2022-09-12T04:47:16;99282.34;;;14.94;100.00
70488;BME280;57976;48.174;16.370;2022-09-12T04:49:20;99282.71;;;14.96;100.00
70488;BME280;57976;48.174;16.370;2022-09-12T04:51:27;99287.73;;;14.98;100.00
70488;BME280;57976;48.174;16.370;2022-09-12T04:53:32;99292.27;;;15.00;100.00
70488;BME280;57976;48.174;16.370;2022-09-12T04:55:37;99291.34;;;15.02;100.00
70488;BME280;57976;48.174;16.370;2022-09-12T04:57:41;99292.45;;;15.04;100.00
70488;BME280;57976;48.174;16.370;2022-09-12T04:59:46;99292.33;;;15.05;100.00
70488;BME280;57976;48.174;16.370;2022-09-12T05:01:51;99296.13;;;15.06;100.00
70488;BME280;57976;48.174;16.370;2022-09-12T05:03:56;99297.86;;;15.07;100.00
70488;BME280;57976;48.174;16.370;2022-09-12T05:06:02;99298.33;;;15.06;100.00
70488;BME280;57976;48.174;16.370;2022-09-12T05:08:07;99297.35;;;15.08;100.00
70488;BME280;57976;48.174;16.370;2022-09-12T05:10:11;99301.52;;;15.10;100.00
70488;BME280;57976;48.174;16.370;2022-09-12T05:12:16;99310.29;;;15.12;100.00
70488;BME280;57976;48.174;16.370;2022-09-12T05:14:21;99311.65;;;15.13;99.94
70488;BME280;57976;48.174;16.370;2022-09-12T05:16:27;99314.14;;;15.14;99.98
70488;BME280;57976;48.174;16.370;2022-09-12T05:18:35;99318.73;;;15.14;100.00
70488;BME280;57976;48.174;16.370;2022-09-12T05:20:40;99322.15;;;15.19;99.91
70488;BME280;57976;48.174;16.370;2022-09-12T05:22:45;99321.08;;;15.21;99.87
70488;BME280;57976;48.174;16.370;2022-09-12T05:24:49;99328.85;;;15.24;99.59
70488;BME280;57976;48.174;16.370;2022-09-12T05:26:54;99327.96;;;15.28;99.47
70488;BME280;57976;48.174;16.370;2022-09-12T05:28:59;99330.53;;;15.29;99.44
70488;BME280;57976;48.174;16.370;2022-09-12T05:31:05;99332.38;;;15.30;99.11
70488;BME280;57976;48.174;16.370;2022-09-12T05:33:10;99337.67;;;15.32;99.42
70488;BME280;57976;48.174;16.370;2022-09-12T05:35:15;99331.55;;;15.32;99.07
70488;BME280;57976;48.174;16.370;2022-09-12T05:37:20;99330.15;;;15.35;99.01
70488;BME280;57976;48.174;16.370;2022-09-12T05:39:25;99334.27;;;15.40;98.84
70488;BME280;57976;48.174;16.370;2022-09-12T05:41:30;99334.80;;;15.45;98.51
70488;BME280;57976;48.174;16.370;2022-09-12T05:43:36;99331.94;;;15.48;98.26
70488;BME280;57976;48.174;16.370;2022-09-12T05:45:41;99330.50;;;15.54;98.27
70488;BME280;57976;48.174;16.370;2022-09-12T05:47:48;99328.77;;;15.58;97.81
70488;BME280;57976;48.174;16.370;2022-09-12T05:49:52;99337.34;;;15.61;97.33
70488;BME280;57976;48.174;16.370;2022-09-12T05:51:57;99331.67;;;15.62;97.31
70488;BME280;57976;48.174;16.370;2022-09-12T05:54:04;99336.86;;;15.66;97.12
70488;BME280;57976;48.174;16.370;2022-09-12T05:56:11;99338.30;;;15.70;96.86
70488;BME280;57976;48.174;16.370;2022-09-12T05:58:15;99335.80;;;15.76;96.71
70488;BME280;57976;48.174;16.370;2022-09-12T06:00:20;99339.98;;;15.83;96.44
70488;BME280;57976;48.174;16.370;2022-09-12T06:02:25;99337.76;;;15.86;96.45
70488;BME280;57976;48.174;16.370;2022-09-12T06:04:30;99336.41;;;15.93;96.21
70488;BME280;57976;48.174;16.370;2022-09-12T06:06:36;99340.16;;;16.00;95.72
70488;BME280;57976;48.174;16.370;2022-09-12T06:08:43;99335.49;;;16.05;95.56
70488;BME280;57976;48.174;16.370;2022-09-12T06:10:48;99336.53;;;16.10;94.69
70488;BME280;57976;48.174;16.370;2022-09-12T06:12:53;99332.48;;;16.15;94.74
70488;BME280;57976;48.174;16.370;2022-09-12T06:14:57;99341.86;;;16.21;93.48
70488;BME280;57976;48.174;16.370;2022-09-12T06:17:02;99339.56;;;16.22;93.41
70488;BME280;57976;48.174;16.370;2022-09-12T06:19:11;99338.36;;;16.20;92.89
70488;BME280;57976;48.174;16.370;2022-09-12T06:21:16;99340.16;;;16.21;92.69
70488;BME280;57976;48.174;16.370;2022-09-12T06:23:21;99341.41;;;16.22;92.61
70488;BME280;57976;48.174;16.370;2022-09-12T06:25:26;99338.20;;;16.24;92.74
70488;BME280;57976;48.174;16.370;2022-09-12T06:27:30;99347.18;;;16.28;91.78
70488;BME280;57976;48.174;16.370;2022-09-12T06:29:35;99339.91;;;16.30;91.98
70488;BME280;57976;48.174;16.370;2022-09-12T06:31:41;99345.67;;;16.33;91.35
70488;BME280;57976;48.174;16.370;2022-09-12T06:33:48;99344.60;;;16.36;91.12
70488;BME280;57976;48.174;16.370;2022-09-12T06:35:53;99342.62;;;16.39;90.75
70488;BME280;57976;48.174;16.370;2022-09-12T06:37:57;99343.40;;;16.43;89.66
70488;BME280;57976;48.174;16.370;2022-09-12T06:40:03;99344.58;;;16.49;89.92
70488;BME280;57976;48.174;16.370;2022-09-12T06:42:08;99341.86;;;16.56;89.56
70488;BME280;57976;48.174;16.370;2022-09-12T06:44:14;99336.70;;;16.66;89.50
70488;BME280;57976;48.174;16.370;2022-09-12T06:46:19;99334.13;;;16.72;88.90
70488;BME280;57976;48.174;16.370;2022-09-12T06:48:24;99337.10;;;16.82;88.60
70488;BME280;57976;48.174;16.370;2022-09-12T06:50:28;99334.63;;;16.90;87.62
70488;BME280;57976;48.174;16.370;2022-09-12T06:52:33;99331.53;;;16.98;87.27
70488;BME280;57976;48.174;16.370;2022-09-12T06:54:38;99338.77;;;17.06;86.80
70488;BME280;57976;48.174;16.370;2022-09-12T06:56:42;99342.50;;;17.10;84.84
70488;BME280;57976;48.174;16.370;2022-09-12T06:58:48;99343.52;;;17.15;84.94
70488;BME280;57976;48.174;16.370;2022-09-12T07:00:59;99345.23;;;17.22;85.13
70488;BME280;57976;48.174;16.370;2022-09-12T07:03:04;99343.02;;;17.27;84.86
70488;BME280;57976;48.174;16.370;2022-09-12T07:05:09;99344.19;;;17.35;85.29
70488;BME280;57976;48.174;16.370;2022-09-12T07:07:14;99355.58;;;17.44;83.83
70488;BME280;57976;48.174;16.370;2022-09-12T07:09:19;99361.60;;;17.51;82.97
70488;BME280;57976;48.174;16.370;2022-09-12T07:11:25;99359.59;;;17.56;81.69
70488;BME280;57976;48.174;16.370;2022-09-12T07:13:30;99360.02;;;17.59;81.76
70488;BME280;57976;48.174;16.370;2022-09-12T07:15:36;99357.81;;;17.62;82.07
70488;BME280;57976;48.174;16.370;2022-09-12T07:17:41;99362.10;;;17.69;81.98
70488;BME280;57976;48.174;16.370;2022-09-12T07:19:45;99371.41;;;17.74;80.05
70488;BME280;57976;48.174;16.370;2022-09-12T07:21:50;99372.70;;;17.77;79.41
70488;BME280;57976;48.174;16.370;2022-09-12T07:24:01;99377.20;;;17.74;78.52
70488;BME280;57976;48.174;16.370;2022-09-12T07:26:07;99375.71;;;17.74;78.91
70488;BME280;57976;48.174;16.370;2022-09-12T07:28:13;99374.83;;;17.75;79.09
70488;BME280;57976;48.174;16.370;2022-09-12T07:30:17;99373.11;;;17.79;79.28
70488;BME280;57976;48.174;16.370;2022-09-12T07:32:22;99373.13;;;17.84;79.32
70488;BME280;57976;48.174;16.370;2022-09-12T07:34:27;99378.45;;;17.87;78.11
70488;BME280;57976;48.174;16.370;2022-09-12T07:36:31;99373.62;;;17.88;78.41
70488;BME280;57976;48.174;16.370;2022-09-12T07:38:36;99376.34;;;17.89;77.93
70488;BME280;57976;48.174;16.370;2022-09-12T07:40:41;99377.47;;;17.92;78.50
70488;BME280;57976;48.174;16.370;2022-09-12T07:42:46;99371.70;;;17.94;78.05
70488;BME280;57976;48.174;16.370;2022-09-12T07:44:50;99380.89;;;17.94;77.69
70488;BME280;57976;48.174;16.370;2022-09-12T07:46:55;99379.27;;;17.94;77.14
70488;BME280;57976;48.174;16.370;2022-09-12T07:49:00;99376.41;;;17.93;77.34
70488;BME280;57976;48.174;16.370;2022-09-12T07:51:08;99376.73;;;17.94;77.83
70488;BME280;57976;48.174;16.370;2022-09-12T07:53:13;99378.60;;;17.95;77.32
70488;BME280;57976;48.174;16.370;2022-09-12T07:55:18;99381.75;;;17.97;77.03
70488;BME280;57976;48.174;16.370;2022-09-12T07:57:22;99373.82;;;17.97;77.36
70488;BME280;57976;48.174;16.370;2022-09-12T07:59:27;99375.48;;;17.99;77.78
70488;BME280;57976;48.174;16.370;2022-09-12T08:01:52;99375.77;;;18.04;77.05
70488;BME280;57976;48.174;16.370;2022-09-12T08:03:58;99375.75;;;18.07;77.53
70488;BME280;57976;48.174;16.370;2022-09-12T08:06:07;99376.52;;;18.16;77.01
70488;BME280;57976;48.174;16.370;2022-09-12T08:08:12;99374.39;;;18.26;77.36
70488;BME280;57976;48.174;16.370;2022-09-12T08:10:17;99379.59;;;18.35;76.23
70488;BME280;57976;48.174;16.370;2022-09-12T08:12:22;99375.89;;;18.42;75.92
70488;BME280;57976;48.174;16.370;2022-09-12T08:14:27;99378.32;;;18.48;75.71
70488;BME280;57976;48.174;16.370;2022-09-12T08:16:32;99377.88;;;18.55;75.24
70488;BME280;57976;48.174;16.370;2022-09-12T08:18:37;99376.23;;;18.62;75.32
70488;BME280;57976;48.174;16.370;2022-09-12T08:20:42;99377.40;;;18.70;75.08
70488;BME280;57976;48.174;16.370;2022-09-12T08:22:47;99382.06;;;18.76;73.95
70488;BME280;57976;48.174;16.370;2022-09-12T08:24:52;99377.14;;;18.80;73.69
70488;BME280;57976;48.174;16.370;2022-09-12T08:26:57;99370.54;;;18.83;73.60
70488;BME280;57976;48.174;16.370;2022-09-12T08:29:01;99374.70;;;18.88;73.04
70488;BME280;57976;48.174;16.370;2022-09-12T08:31:09;99362.36;;;18.90;74.22
70488;BME280;57976;48.174;16.370;2022-09-12T08:33:14;99366.62;;;18.98;73.87
70488;BME280;57976;48.174;16.370;2022-09-12T08:35:19;99372.35;;;19.10;73.19
70488;BME280;57976;48.174;16.370;2022-09-12T08:37:24;99369.99;;;19.17;72.68
70488;BME280;57976;48.174;16.370;2022-09-12T08:39:29;99372.80;;;19.23;71.35
70488;BME280;57976;48.174;16.370;2022-09-12T08:41:37;99365.77;;;19.27;71.16
70488;BME280;57976;48.174;16.370;2022-09-12T08:43:55;99361.45;;;19.32;71.01
70488;BME280;57976;48.174;16.370;2022-09-12T08:46:06;99360.59;;;19.43;70.78
70488;BME280;57976;48.174;16.370;2022-09-12T08:48:12;99352.33;;;19.50;70.04
70488;BME280;57976;48.174;16.370;2022-09-12T08:50:19;99356.52;;;19.58;69.82
70488;BME280;57976;48.174;16.370;2022-09-12T08:52:28;99359.19;;;19.64;68.29
70488;BME280;57976;48.174;16.370;2022-09-12T08:54:34;99354.52;;;19.67;69.24
70488;BME280;57976;48.174;16.370;2022-09-12T08:56:39;99357.18;;;19.76;69.51
70488;BME280;57976;48.174;16.370;2022-09-12T08:58:45;99354.67;;;19.88;68.49
70488;BME280;57976;48.174;16.370;2022-09-12T09:00:59;99354.67;;;19.95;67.28
70488;BME280;57976;48.174;16.370;2022-09-12T09:03:22;99358.13;;;20.05;66.72
70488;BME280;57976;48.174;16.370;2022-09-12T09:05:42;99356.08;;;20.13;65.66
70488;BME280;57976;48.174;16.370;2022-09-12T09:08:11;99356.56;;;20.20;65.93
70488;BME280;57976;48.174;16.370;2022-09-12T09:10:25;99358.08;;;20.28;64.87
70488;BME280;57976;48.174;16.370;2022-09-12T09:12:39;99352.38;;;20.34;64.26
70488;BME280;57976;48.174;16.370;2022-09-12T09:14:59;99342.23;;;20.39;65.60
70488;BME280;57976;48.174;16.370;2022-09-12T09:17:12;99341.67;;;20.50;65.86
70488;BME280;57976;48.174;16.370;2022-09-12T09:19:22;99345.51;;;20.61;64.82
70488;BME280;57976;48.174;16.370;2022-09-12T09:21:31;99343.32;;;20.55;64.24
70488;BME280;57976;48.174;16.370;2022-09-12T09:23:42;99344.84;;;20.56;64.66
70488;BME280;57976;48.174;16.370;2022-09-12T09:25:52;99341.98;;;20.61;64.02
70488;BME280;57976;48.174;16.370;2022-09-12T09:28:04;99344.77;;;20.66;62.62
70488;BME280;57976;48.174;16.370;2022-09-12T09:30:15;99347.22;;;20.68;61.85
70488;BME280;57976;48.174;16.370;2022-09-12T09:32:26;99340.45;;;20.69;61.69
70488;BME280;57976;48.174;16.370;2022-09-12T09:34:31;99333.61;;;20.68;61.34
70488;BME280;57976;48.174;16.370;2022-09-12T09:36:46;99337.06;;;20.60;61.69
70488;BME280;57976;48.174;16.370;2022-09-12T09:38:57;99343.70;;;20.54;61.22
70488;BME280;57976;48.174;16.370;2022-09-12T09:41:31;99345.20;;;20.53;61.11
70488;BME280;57976;48.174;16.370;2022-09-12T09:43:39;99339.13;;;20.50;61.37
70488;BME280;57976;48.174;16.370;2022-09-12T09:45:44;99343.23;;;20.50;61.28
70488;BME280;57976;48.174;16.370;2022-09-12T09:47:53;99336.11;;;20.50;61.78
70488;BME280;57976;48.174;16.370;2022-09-12T09:50:00;99332.21;;;20.56;61.98
70488;BME280;57976;48.174;16.370;2022-09-12T09:52:06;99339.60;;;20.60;61.23
70488;BME280;57976;48.174;16.370;2022-09-12T09:54:18;99339.45;;;20.63;61.26
70488;BME280;57976;48.174;16.370;2022-09-12T09:56:31;99351.65;;;20.70;60.46
70488;BME280;57976;48.174;16.370;2022-09-12T09:58:37;99346.84;;;20.71;59.34
70488;BME280;57976;48.174;16.370;2022-09-12T10:00:43;99338.02;;;20.73;60.64
70488;BME280;57976;48.174;16.370;2022-09-12T10:03:03;99340.20;;;20.79;60.45
70488;BME280;57976;48.174;16.370;2022-09-12T10:05:17;99346.01;;;20.84;59.06
70488;BME280;57976;48.174;16.370;2022-09-12T10:07:22;99340.42;;;20.83;58.96
70488;BME280;57976;48.174;16.370;2022-09-12T10:09:29;99337.45;;;20.83;58.74
70488;BME280;57976;48.174;16.370;2022-09-12T10:11:34;99332.36;;;20.84;59.49
70488;BME280;57976;48.174;16.370;2022-09-12T10:13:41;99329.94;;;20.88;59.58
70488;BME280;57976;48.174;16.370;2022-09-12T10:15:57;99326.47;;;20.91;59.99
70488;BME280;57976;48.174;16.370;2022-09-12T10:18:02;99330.43;;;20.93;60.03
70488;BME280;57976;48.174;16.370;2022-09-12T10:20:31;99324.11;;;20.96;60.33
70488;BME280;57976;48.174;16.370;2022-09-12T10:22:38;99334.12;;;20.97;59.56
70488;BME280;57976;48.174;16.370;2022-09-12T10:24:48;99327.23;;;20.90;59.39
70488;BME280;57976;48.174;16.370;2022-09-12T10:26:55;99328.58;;;20.87;59.59
70488;BME280;57976;48.174;16.370;2022-09-12T10:29:06;99329.39;;;20.86;59.74
70488;BME280;57976;48.174;16.370;2022-09-12T10:31:22;99324.69;;;20.87;59.86
70488;BME280;57976;48.174;16.370;2022-09-12T10:33:28;99315.63;;;20.86;60.12
70488;BME280;57976;48.174;16.370;2022-09-12T10:35:44;99325.52;;;20.83;60.39
70488;BME280;57976;48.174;16.370;2022-09-12T10:37:54;99323.95;;;20.80;60.53
70488;BME280;57976;48.174;16.370;2022-09-12T10:40:01;99324.23;;;20.79;60.02
70488;BME280;57976;48.174;16.370;2022-09-12T10:42:11;99326.59;;;20.78;59.70
70488;BME280;57976;48.174;16.370;2022-09-12T10:44:23;99318.27;;;20.76;59.65
70488;BME280;57976;48.174;16.370;2022-09-12T10:46:30;99315.83;;;20.76;60.41
70488;BME280;57976;48.174;16.370;2022-09-12T10:48:34;99322.98;;;20.83;60.13
70488;BME280;57976;48.174;16.370;2022-09-12T10:50:41;99322.30;;;20.86;59.96
70488;BME280;57976;48.174;16.370;2022-09-12T10:52:47;99324.20;;;20.88;58.64
70488;BME280;57976;48.174;16.370;2022-09-12T10:54:52;99318.02;;;20.86;58.84
70488;BME280;57976;48.174;16.370;2022-09-12T11:00:00;99312.08;;;20.90;58.89
70488;BME280;57976;48.174;16.370;2022-09-12T11:02:17;99310.77;;;20.95;58.92
70488;BME280;57976;48.174;16.370;2022-09-12T11:04:40;99306.19;;;21.01;59.29
70488;BME280;57976;48.174;16.370;2022-09-12T11:06:56;99319.00;;;21.06;58.39
70488;BME280;57976;48.174;16.370;2022-09-12T11:09:08;99313.05;;;21.07;58.04
70488;BME280;57976;48.174;16.370;2022-09-12T11:11:31;99308.22;;;21.08;57.95
70488;BME280;57976;48.174;16.370;2022-09-12T11:13:51;99312.31;;;21.05;57.45